Time;durP1;ratioP1;P1;durP2;ratioP2;P2;SDS_P1;SDS_P2;PMS_P1;PMS_P2;Temp;Humidity;BMP_temperature;BMP_pressure;BME280_temperature;BME280_humidity;BME280_pressure;Samples;Min_cycle;Max_cycle;Signal;HPM_P1;HPM_P2
2021/03/27 00:01:54;;;;;;;7.38;6.15;;;11.00;95.60;;;;;;5043760;28;20311;-73
2021/03/27 00:04:27;;;;;;;7.30;6.05;;;11.00;96.20;;;;;;5043785;28;20258;-73
2021/03/27 00:07:11;;;;;;;6.43;5.82;;;11.00;96.60;;;;;;5043470;28;20205;-73
2021/03/27 00:09:41;;;;;;;8.73;5.70;;;10.90;97.00;;;;;;5042664;28;20287;-72
2021/03/27 00:12:12;;;;;;;6.97;5.53;;;10.80;97.30;;;;;;5043785;28;20227;-73
2021/03/27 00:14:45;;;;;;;7.63;5.65;;;10.80;97.40;;;;;;5042762;28;20614;-73
2021/03/27 00:17:15;;;;;;;5.60;4.82;;;10.80;97.60;;;;;;5113988;22;20205;-74
2021/03/27 00:19:46;;;;;;;7.38;5.05;;;10.70;97.80;;;;;;5040558;28;20217;-73
2021/03/27 00:22:22;;;;;;;7.75;5.45;;;10.70;97.80;;;;;;5048409;28;20252;-72
2021/03/27 00:25:02;;;;;;;8.15;5.38;;;10.70;97.80;;;;;;5050568;28;20208;-72
2021/03/27 00:27:35;;;;;;;5.85;4.88;;;10.70;97.90;;;;;;5050106;28;20200;-73
2021/03/27 00:30:07;;;;;;;5.40;4.75;;;10.70;97.90;;;;;;5048853;28;20201;-73
2021/03/27 00:32:38;;;;;;;5.32;4.70;;;10.70;98.30;;;;;;5049694;28;20773;-73
2021/03/27 00:35:08;;;;;;;6.60;5.30;;;10.70;98.70;;;;;;5049291;28;20208;-73
2021/03/27 00:37:35;;;;;;;6.13;4.38;;;10.70;99.00;;;;;;5049935;28;20263;-72
2021/03/27 00:40:06;;;;;;;6.15;4.75;;;10.70;99.20;;;;;;5049041;28;20259;-72
2021/03/27 00:42:37;;;;;;;5.15;4.65;;;10.70;99.40;;;;;;5049606;28;20228;-72
2021/03/27 00:45:10;;;;;;;5.45;4.68;;;10.60;99.70;;;;;;5049188;28;20205;-73
2021/03/27 00:47:41;;;;;;;5.55;4.85;;;10.50;99.90;;;;;;5049828;28;20197;-74
2021/03/27 00:50:13;;;;;;;5.22;4.55;;;10.40;99.90;;;;;;5048881;28;20275;-73
2021/03/27 00:52:45;;;;;;;6.93;4.78;;;10.40;99.90;;;;;;5049788;28;21053;-72
2021/03/27 00:55:15;;;;;;;10.13;5.00;;;10.40;99.90;;;;;;5049597;28;20201;-72
2021/03/27 00:57:52;;;;;;;4.93;4.43;;;10.30;99.90;;;;;;5049462;28;20201;-73
2021/03/27 01:00:26;;;;;;;6.15;4.82;;;10.30;99.90;;;;;;5048880;28;20232;-72
2021/03/27 01:02:57;;;;;;;7.28;4.68;;;10.20;99.90;;;;;;5049311;28;20587;-72
2021/03/27 01:05:27;;;;;;;6.22;4.15;;;10.20;99.90;;;;;;5048941;28;20201;-73
2021/03/27 01:07:56;;;;;;;7.10;5.00;;;10.10;99.90;;;;;;5049223;28;20208;-73
2021/03/27 01:10:26;;;;;;;6.47;5.20;;;10.00;99.90;;;;;;5048746;28;20255;-73
2021/03/27 01:12:54;;;;;;;5.40;4.90;;;9.90;99.90;;;;;;5049230;28;20323;-73
2021/03/27 01:15:25;;;;;;;5.63;5.03;;;9.90;99.90;;;;;;5046874;28;20223;-72
2021/03/27 01:17:55;;;;;;;4.15;3.75;;;9.80;99.90;;;;;;5047568;28;20224;-73
2021/03/27 01:20:25;;;;;;;6.00;4.60;;;9.80;99.90;;;;;;5048292;28;20224;-74
2021/03/27 01:22:53;;;;;;;4.78;4.00;;;9.80;99.90;;;;;;5049173;28;20221;-72
2021/03/27 01:25:23;;;;;;;4.97;4.50;;;9.80;99.90;;;;;;5048801;28;20208;-72
2021/03/27 01:28:03;;;;;;;4.88;4.20;;;9.70;99.90;;;;;;5048908;28;20706;-73
2021/03/27 01:30:37;;;;;;;5.30;4.45;;;9.70;99.90;;;;;;5048763;28;20197;-72
2021/03/27 01:33:13;;;;;;;5.32;4.75;;;9.70;99.90;;;;;;5048612;28;20224;-73
2021/03/27 01:35:43;;;;;;;5.07;4.20;;;9.60;99.90;;;;;;5049224;28;20197;-73
2021/03/27 01:38:13;;;;;;;5.00;4.60;;;9.60;99.90;;;;;;5048707;28;20212;-73
2021/03/27 01:40:52;;;;;;;5.47;4.60;;;9.70;99.90;;;;;;5048512;28;20232;-73
2021/03/27 01:43:29;;;;;;;5.35;4.60;;;9.70;99.90;;;;;;5048744;28;20213;-73
2021/03/27 01:46:30;;;;;;;4.80;4.30;;;9.70;99.90;;;;;;5048922;28;20215;-73
2021/03/27 01:49:09;;;;;;;5.15;4.53;;;9.70;99.90;;;;;;5045243;28;20887;-73
2021/03/27 01:51:55;;;;;;;5.70;4.85;;;9.70;99.90;;;;;;5048750;28;20224;-72
2021/03/27 01:54:26;;;;;;;6.70;4.95;;;9.60;99.90;;;;;;5048770;28;20201;-73
2021/03/27 01:57:11;;;;;;;6.07;4.45;;;9.60;99.90;;;;;;5046656;28;20201;-73
2021/03/27 01:59:41;;;;;;;5.05;4.55;;;9.50;99.90;;;;;;5047902;28;20228;-73
2021/03/27 02:02:12;;;;;;;5.30;4.40;;;9.50;99.90;;;;;;5048578;28;20221;-73
2021/03/27 02:04:42;;;;;;;5.70;4.43;;;9.50;99.90;;;;;;5049025;28;20205;-72
2021/03/27 02:07:17;;;;;;;4.70;4.30;;;9.40;99.90;;;;;;5048769;28;20201;-73
2021/03/27 02:09:48;;;;;;;5.15;4.65;;;9.40;99.90;;;;;;5048634;28;20266;-73
2021/03/27 02:12:28;;;;;;;5.20;4.68;;;9.40;99.90;;;;;;5048956;28;20275;-73
2021/03/27 02:14:58;;;;;;;5.75;4.63;;;9.40;99.90;;;;;;5049749;28;20205;-72
2021/03/27 02:17:31;;;;;;;6.97;6.10;;;9.40;99.90;;;;;;5058456;28;20295;-73
2021/03/27 02:20:42;;;;;;;5.90;5.00;;;9.40;99.90;;;;;;5078700;28;20216;-73
2021/03/27 02:23:17;;;;;;;6.45;5.03;;;9.40;99.90;;;;;;5077792;28;20215;-73
2021/03/27 02:26:10;;;;;;;6.35;5.30;;;9.30;99.90;;;;;;5052422;28;20227;-73
2021/03/27 02:29:38;;;;;;;5.68;4.95;;;9.30;99.90;;;;;;5052054;28;20209;-73
2021/03/27 02:32:10;;;;;;;5.70;4.85;;;9.20;99.90;;;;;;4948905;28;20269;-73
2021/03/27 02:34:42;;;;;;;8.00;5.70;;;9.30;99.90;;;;;;4971115;28;20212;-73
2021/03/27 02:37:16;;;;;;;6.55;5.15;;;9.30;99.90;;;;;;5027715;28;20209;-73
2021/03/27 02:39:47;;;;;;;5.50;5.00;;;9.30;99.90;;;;;;5051601;28;20228;-73
2021/03/27 02:42:35;;;;;;;6.93;5.22;;;9.30;99.90;;;;;;5051577;28;20240;-73
2021/03/27 02:45:09;;;;;;;11.20;5.55;;;9.20;99.90;;;;;;5051849;28;20549;-73
2021/03/27 02:47:44;;;;;;;6.45;5.50;;;9.20;99.90;;;;;;5051908;28;20204;-73
2021/03/27 02:50:32;;;;;;;6.05;5.07;;;9.10;99.90;;;;;;5050900;28;20208;-73
2021/03/27 02:53:04;;;;;;;8.98;5.50;;;9.00;99.90;;;;;;5051576;28;20229;-73
2021/03/27 02:55:35;;;;;;;4.88;4.32;;;9.00;99.90;;;;;;5051290;28;20212;-73
2021/03/27 02:58:13;;;;;;;6.25;5.55;;;9.00;99.90;;;;;;5051635;28;20586;-73
2021/03/27 03:00:45;;;;;;;5.22;4.68;;;8.90;99.90;;;;;;5050824;28;20225;-73
2021/03/27 03:03:19;;;;;;;6.97;5.20;;;8.80;99.90;;;;;;5051331;28;20201;-73
2021/03/27 03:05:49;;;;;;;5.95;4.85;;;8.70;99.90;;;;;;5051541;28;20205;-73
2021/03/27 03:08:22;;;;;;;5.18;4.68;;;8.70;99.90;;;;;;5051073;28;20228;-73
2021/03/27 03:10:56;;;;;;;5.70;4.55;;;8.70;99.90;;;;;;5050734;28;20613;-73
2021/03/27 03:13:29;;;;;;;5.97;4.30;;;8.70;99.90;;;;;;5051173;28;20481;-73
2021/03/27 03:16:03;;;;;;;5.15;4.65;;;8.70;99.90;;;;;;5051456;28;20212;-72
2021/03/27 03:18:42;;;;;;;6.90;4.90;;;8.70;99.90;;;;;;5050777;28;20228;-73
2021/03/27 03:21:16;;;;;;;5.82;4.55;;;8.70;99.90;;;;;;5050943;28;20235;-73
2021/03/27 03:23:54;;;;;;;5.57;5.05;;;8.60;99.90;;;;;;5050831;28;20208;-72
2021/03/27 03:26:31;;;;;;;4.55;4.03;;;8.60;99.90;;;;;;5050740;28;20557;-72
2021/03/27 03:29:05;;;;;;;6.18;4.25;;;8.50;99.90;;;;;;5050113;28;20211;-72
2021/03/27 03:31:39;;;;;;;5.38;3.88;;;8.50;99.90;;;;;;5050501;28;20220;-73
2021/03/27 03:34:14;;;;;;;5.30;3.85;;;8.50;99.90;;;;;;5050552;28;20213;-73
2021/03/27 03:37:10;;;;;;;4.15;3.78;;;8.60;99.90;;;;;;5050684;28;20668;-73
2021/03/27 03:40:08;;;;;;;3.78;3.40;;;8.60;99.90;;;;;;5004453;28;20225;-73
2021/03/27 03:43:09;;;;;;;4.10;3.42;;;8.60;99.90;;;;;;5034604;28;20225;-73
2021/03/27 03:46:10;;;;;;;4.35;3.25;;;8.70;99.90;;;;;;5050703;28;20207;-73
2021/03/27 03:48:48;;;;;;;2.88;2.60;;;8.70;99.90;;;;;;5050019;28;20213;-73
2021/03/27 03:51:30;;;;;;;2.67;2.10;;;8.80;99.90;;;;;;5050534;28;20220;-72
2021/03/27 03:54:20;;;;;;;1.95;1.60;;;8.70;99.90;;;;;;5050195;28;20201;-72
2021/03/27 03:56:51;;;;;;;1.83;1.50;;;8.70;99.90;;;;;;5050555;28;20205;-73
2021/03/27 03:59:31;;;;;;;1.92;1.27;;;8.50;99.90;;;;;;5049433;28;20229;-72
2021/03/27 04:02:02;;;;;;;1.33;1.15;;;8.30;99.90;;;;;;5050603;28;20272;-73
2021/03/27 04:04:33;;;;;;;1.60;1.48;;;8.20;99.90;;;;;;5050359;28;20600;-73
2021/03/27 04:07:04;;;;;;;1.73;1.33;;;8.20;99.90;;;;;;5050497;28;20232;-72
2021/03/27 04:09:36;;;;;;;1.50;1.40;;;8.10;99.90;;;;;;5050142;28;20231;-73
2021/03/27 04:12:26;;;;;;;1.50;1.20;;;8.00;99.90;;;;;;5049908;28;20232;-72
2021/03/27 04:15:21;;;;;;;1.80;1.30;;;8.00;99.90;;;;;;5045616;28;20205;-72
2021/03/27 04:17:57;;;;;;;1.65;1.10;;;7.90;99.90;;;;;;5049787;28;20212;-73
2021/03/27 04:20:29;;;;;;;1.58;1.27;;;7.80;99.90;;;;;;5049579;28;20826;-73
2021/03/27 04:23:02;;;;;;;1.00;0.90;;;7.70;99.90;;;;;;5049890;28;20229;-72
2021/03/27 04:25:34;;;;;;;1.60;1.02;;;7.70;99.90;;;;;;5050177;28;20208;-73
2021/03/27 04:28:10;;;;;;;1.40;1.30;;;7.60;99.90;;;;;;5049783;28;20207;-72
2021/03/27 04:30:50;;;;;;;1.50;1.00;;;7.60;99.90;;;;;;5049079;28;20201;-73
2021/03/27 04:33:31;;;;;;;1.10;1.00;;;7.50;99.90;;;;;;5049979;28;20197;-73
2021/03/27 04:36:02;;;;;;;1.30;1.20;;;7.50;99.90;;;;;;5049350;28;20208;-73
2021/03/27 04:38:35;;;;;;;2.90;1.58;;;7.40;99.90;;;;;;5049489;28;20704;-73
2021/03/27 04:41:15;;;;;;;1.20;1.08;;;7.40;99.90;;;;;;5048925;28;20221;-73
2021/03/27 04:43:47;;;;;;;1.10;1.00;;;7.30;99.90;;;;;;5049497;28;20223;-72
2021/03/27 04:46:20;;;;;;;1.10;1.00;;;7.20;99.90;;;;;;5049165;28;20201;-73
2021/03/27 04:48:54;;;;;;;1.33;1.10;;;7.10;99.90;;;;;;5049090;28;20208;-73
2021/03/27 04:51:50;;;;;;;1.38;1.27;;;7.10;99.90;;;;;;5049153;28;20711;-72
2021/03/27 04:54:29;;;;;;;1.30;1.10;;;7.00;99.90;;;;;;5049126;28;20209;-73
2021/03/27 04:57:07;;;;;;;1.25;1.10;;;7.00;99.90;;;;;;5049423;28;20208;-73
2021/03/27 04:59:49;;;;;;;1.35;1.00;;;7.00;99.90;;;;;;5048677;28;20235;-72
2021/03/27 05:02:18;;;;;;;1.23;1.00;;;6.80;99.90;;;;;;5049055;28;20220;-72
2021/03/27 05:04:56;;;;;;;1.00;0.90;;;6.70;99.90;;;;;;5049044;28;20208;-72
2021/03/27 05:07:28;;;;;;;0.90;0.80;;;6.60;99.90;;;;;;5049102;28;20842;-72
2021/03/27 05:10:07;;;;;;;1.20;1.00;;;6.50;99.90;;;;;;5048155;28;20676;-73
2021/03/27 05:12:48;;;;;;;1.27;1.00;;;6.50;99.90;;;;;;5050195;28;20291;-72
2021/03/27 05:15:22;;;;;;;1.23;1.10;;;6.50;99.90;;;;;;5048652;28;20719;-73
2021/03/27 05:18:26;;;;;;;1.42;1.13;;;6.50;99.90;;;;;;5048803;28;20258;-73
2021/03/27 05:20:56;;;;;;;1.98;1.25;;;6.40;99.90;;;;;;5048189;28;20220;-72
2021/03/27 05:23:34;;;;;;;1.70;1.10;;;6.40;99.90;;;;;;5048678;28;20197;-73
2021/03/27 05:26:08;;;;;;;1.73;1.10;;;6.50;99.90;;;;;;5048729;28;20687;-73
2021/03/27 05:29:04;;;;;;;1.10;1.00;;;6.50;99.90;;;;;;5048424;28;20204;-73
2021/03/27 05:31:36;;;;;;;1.75;1.20;;;6.50;99.90;;;;;;5048572;28;20221;-73
2021/03/27 05:34:21;;;;;;;1.10;0.80;;;6.50;99.90;;;;;;5048182;28;20205;-72
2021/03/27 05:37:00;;;;;;;1.48;1.17;;;6.50;99.90;;;;;;5048936;28;20205;-73
2021/03/27 05:39:35;;;;;;;1.45;1.00;;;6.50;99.90;;;;;;5047984;28;20231;-72
2021/03/27 05:42:54;;;;;;;1.48;1.00;;;6.50;99.90;;;;;;5048228;28;20784;-72
2021/03/27 05:46:05;;;;;;;1.00;0.90;;;6.60;99.90;;;;;;5048157;28;20200;-73
2021/03/27 05:49:16;;;;;;;0.90;0.80;;;6.50;99.90;;;;;;5001258;28;20217;-73
2021/03/27 05:52:20;;;;;;;1.13;0.80;;;6.40;99.90;;;;;;5051215;28;20224;-72
2021/03/27 05:55:21;;;;;;;1.15;0.90;;;6.40;99.90;;;;;;5052607;28;20691;-72
2021/03/27 05:58:23;;;;;;;0.90;0.80;;;6.40;99.90;;;;;;5052376;28;20212;-73
2021/03/27 06:00:56;;;;;;;1.25;0.80;;;6.30;99.90;;;;;;5051925;28;20299;-73
2021/03/27 06:03:53;;;;;;;1.30;1.00;;;6.30;99.90;;;;;;5051836;28;20215;-73
2021/03/27 06:06:47;;;;;;;1.15;1.00;;;6.20;99.90;;;;;;5045964;28;20197;-72
2021/03/27 06:09:47;;;;;;;1.40;1.10;;;6.20;99.90;;;;;;5051961;28;20201;-73
2021/03/27 06:12:33;;;;;;;1.10;0.85;;;6.30;99.90;;;;;;5053087;28;20264;-72
2021/03/27 06:15:24;;;;;;;1.30;1.00;;;6.30;99.90;;;;;;5052359;28;20231;-72
2021/03/27 06:18:27;;;;;;;1.05;0.95;;;6.40;99.90;;;;;;5126599;22;20767;-73
2021/03/27 06:21:16;;;;;;;1.20;0.82;;;6.40;99.90;;;;;;5029125;28;20721;-75
2021/03/27 06:23:57;;;;;;;1.42;1.08;;;6.30;99.90;;;;;;5016923;28;20195;-75
2021/03/27 06:26:57;;;;;;;1.27;1.10;;;6.40;99.90;;;;;;4992834;28;20207;-75
2021/03/27 06:29:53;;;;;;;1.15;0.80;;;6.50;99.90;;;;;;4992458;28;20306;-75
2021/03/27 06:32:57;;;;;;;1.10;1.00;;;6.60;99.90;;;;;;4992601;28;20226;-75
2021/03/27 06:35:37;;;;;;;1.48;1.00;;;6.70;99.90;;;;;;4992550;28;20708;-75
2021/03/27 06:38:32;;;;;;;1.20;0.93;;;6.70;99.90;;;;;;4992029;28;20575;-75
2021/03/27 06:41:09;;;;;;;1.48;1.20;;;6.60;99.90;;;;;;4991831;28;20223;-75
2021/03/27 06:44:07;;;;;;;1.48;1.10;;;6.60;99.90;;;;;;4993160;28;20203;-73
2021/03/27 06:47:08;;;;;;;1.00;0.85;;;6.70;99.90;;;;;;4993066;28;20200;-74
2021/03/27 06:49:56;;;;;;;1.70;1.20;;;6.70;99.90;;;;;;4992466;28;20207;-74
2021/03/27 06:52:47;;;;;;;1.35;1.10;;;6.90;99.90;;;;;;4992512;28;20242;-73
2021/03/27 06:55:30;;;;;;;1.55;1.00;;;7.20;99.90;;;;;;4992834;28;20258;-73
2021/03/27 06:58:34;;;;;;;1.35;1.10;;;7.30;99.90;;;;;;4992508;28;20200;-74
2021/03/27 07:01:31;;;;;;;1.23;1.13;;;7.40;99.90;;;;;;5009087;28;20226;-74
2021/03/27 07:04:31;;;;;;;1.95;1.08;;;7.40;99.90;;;;;;5011380;28;20206;-73
2021/03/27 07:07:22;;;;;;;2.50;1.38;;;7.30;99.90;;;;;;5012215;28;20346;-73
2021/03/27 07:10:30;;;;;;;3.25;1.20;;;7.20;99.90;;;;;;4998710;28;20199;-74
2021/03/27 07:13:30;;;;;;;1.50;1.23;;;7.20;99.90;;;;;;5004327;28;20233;-74
2021/03/27 07:16:29;;;;;;;1.00;0.90;;;7.20;99.90;;;;;;5011573;28;20202;-73
2021/03/27 07:19:30;;;;;;;2.72;1.10;;;7.20;99.90;;;;;;5010894;28;20218;-73
2021/03/27 07:22:15;;;;;;;1.20;1.05;;;7.30;99.90;;;;;;5006508;28;20272;-75
2021/03/27 07:25:30;;;;;;;1.48;1.38;;;7.30;99.90;;;;;;5012002;28;20577;-75
2021/03/27 07:28:30;;;;;;;1.77;1.10;;;7.20;99.90;;;;;;5011646;28;20207;-73
2021/03/27 07:31:17;;;;;;;5.55;1.20;;;7.30;99.90;;;;;;5011167;28;20210;-74
2021/03/27 07:34:07;;;;;;;1.58;0.95;;;7.60;99.90;;;;;;4981734;28;20202;-74
2021/03/27 07:36:43;;;;;;;1.73;1.00;;;7.60;99.80;;;;;;5011838;28;20210;-73
2021/03/27 07:39:38;;;;;;;1.30;0.95;;;7.80;99.70;;;;;;5010843;28;20210;-73
2021/03/27 07:42:39;;;;;;;1.35;1.08;;;8.30;99.70;;;;;;5011423;28;20227;-75
2021/03/27 07:45:48;;;;;;;1.17;1.02;;;9.00;97.70;;;;;;5011650;28;20257;-76
2021/03/27 07:48:44;;;;;;;1.42;1.20;;;9.50;96.10;;;;;;5011683;28;20210;-75
2021/03/27 07:51:25;;;;;;;2.97;1.10;;;10.20;95.20;;;;;;5011298;28;20277;-75
2021/03/27 07:54:18;;;;;;;1.00;0.90;;;10.60;94.60;;;;;;5011486;28;20209;-74
2021/03/27 07:57:02;;;;;;;1.10;0.95;;;10.40;92.90;;;;;;5011908;28;20209;-74
2021/03/27 07:59:47;;;;;;;1.55;1.00;;;10.60;92.70;;;;;;5010800;28;20234;-74
2021/03/27 08:02:55;;;;;;;1.35;1.08;;;11.10;92.60;;;;;;5009132;28;20230;-75
2021/03/27 08:05:59;;;;;;;1.40;1.02;;;11.80;92.00;;;;;;4997285;28;20264;-74
2021/03/27 08:08:59;;;;;;;1.20;1.00;;;12.90;91.60;;;;;;5004740;28;20203;-73
2021/03/27 08:11:48;;;;;;;2.95;1.38;;;13.60;89.30;;;;;;5010817;28;20719;-75
2021/03/27 08:14:29;;;;;;;1.65;1.13;;;13.70;88.50;;;;;;4998818;28;20206;-75
2021/03/27 08:17:35;;;;;;;1.05;0.90;;;13.40;87.20;;;;;;4996784;28;20242;-75
2021/03/27 08:20:20;;;;;;;1.33;1.13;;;12.90;87.40;;;;;;4995273;28;20214;-74
2021/03/27 08:23:20;;;;;;;1.20;1.00;;;12.40;87.10;;;;;;5010026;28;20218;-73
2021/03/27 08:26:10;;;;;;;1.52;0.90;;;12.50;88.60;;;;;;5010579;28;20210;-75
2021/03/27 08:29:30;;;;;;;2.15;1.13;;;13.00;87.00;;;;;;5010267;28;20211;-74
2021/03/27 08:32:14;;;;;;;2.87;1.20;;;12.90;86.50;;;;;;5009367;28;20659;-75
2021/03/27 08:35:17;;;;;;;1.33;1.13;;;12.90;84.80;;;;;;4992004;28;20667;-73
2021/03/27 08:38:08;;;;;;;2.03;1.05;;;12.70;84.00;;;;;;5007412;28;20252;-74
2021/03/27 08:40:58;;;;;;;1.10;0.80;;;12.50;83.50;;;;;;5008390;28;20246;-74
2021/03/27 08:43:53;;;;;;;1.65;1.00;;;12.20;81.80;;;;;;5005054;28;20477;-75
2021/03/27 08:46:42;;;;;;;1.10;0.80;;;12.30;82.80;;;;;;5010333;28;20298;-75
2021/03/27 08:49:51;;;;;;;1.73;1.10;;;13.20;79.40;;;;;;5009156;28;20213;-73
2021/03/27 08:52:56;;;;;;;1.10;1.00;;;13.60;76.60;;;;;;5009966;28;20229;-75
2021/03/27 08:55:37;;;;;;;1.30;1.10;;;12.80;77.40;;;;;;5009777;28;20290;-73
2021/03/27 08:58:20;;;;;;;2.03;1.35;;;12.00;78.90;;;;;;5009640;28;20209;-74
2021/03/27 09:01:05;;;;;;;1.95;0.95;;;11.70;76.70;;;;;;5009066;28;20272;-75
2021/03/27 09:04:14;;;;;;;1.00;0.90;;;11.50;77.30;;;;;;5009744;28;20689;-74
2021/03/27 09:07:08;;;;;;;1.63;1.20;;;12.00;76.20;;;;;;5009564;28;20427;-74
2021/03/27 09:10:10;;;;;;;2.97;1.40;;;12.40;75.00;;;;;;5009559;28;20206;-75
2021/03/27 09:12:55;;;;;;;1.35;1.25;;;12.00;75.80;;;;;;5009537;28;20213;-74
2021/03/27 09:15:41;;;;;;;1.20;0.90;;;11.40;77.30;;;;;;5009536;28;20570;-74
2021/03/27 09:18:42;;;;;;;1.60;1.02;;;10.70;77.40;;;;;;5008934;28;20681;-75
2021/03/27 09:21:32;;;;;;;0.90;0.80;;;10.00;78.30;;;;;;5008059;28;20223;-75
2021/03/27 09:24:08;;;;;;;1.65;1.00;;;10.00;78.00;;;;;;5009126;28;20206;-75
2021/03/27 09:27:28;;;;;;;1.13;0.98;;;10.50;77.60;;;;;;5009386;28;20206;-75
2021/03/27 09:30:19;;;;;;;1.42;0.90;;;10.60;76.70;;;;;;4993078;28;20253;-74
2021/03/27 09:32:50;;;;;;;1.52;1.13;;;12.30;76.40;;;;;;5009417;28;20230;-74
2021/03/27 09:35:36;;;;;;;1.75;0.98;;;14.10;72.00;;;;;;5009030;28;20297;-75
2021/03/27 09:38:13;;;;;;;1.67;0.90;;;14.80;68.30;;;;;;5009259;28;20264;-75
2021/03/27 09:40:55;;;;;;;1.00;0.83;;;14.90;68.60;;;;;;5008882;28;20484;-75
2021/03/27 09:43:43;;;;;;;1.17;0.87;;;15.90;68.50;;;;;;5009142;28;20473;-75
2021/03/27 09:46:18;;;;;;;1.40;1.03;;;15.60;63.70;;;;;;5008674;28;20491;-75
2021/03/27 09:49:00;;;;;;;1.93;1.37;;;15.10;64.30;;;;;;5009042;28;20840;-75
2021/03/27 09:51:58;;;;;;;1.50;0.97;;;14.80;65.30;;;;;;5006229;28;20481;-73
2021/03/27 09:54:33;;;;;;;1.63;0.90;;;16.20;64.40;;;;;;5007441;28;20472;-75
2021/03/27 09:57:04;;;;;;;1.70;1.10;;;16.90;61.60;;;;;;5007167;28;20465;-75
2021/03/27 09:59:37;;;;;;;1.43;0.90;;;15.70;64.30;;;;;;5006768;28;21347;-75
2021/03/27 10:02:15;;;;;;;1.37;0.90;;;16.00;64.70;;;;;;5007508;28;20480;-76
2021/03/27 10:04:54;;;;;;;1.10;1.00;;;17.10;63.10;;;;;;5009539;28;20873;-76
2021/03/27 10:07:46;;;;;;;5.03;1.30;;;18.10;61.10;;;;;;5008777;28;20465;-73
2021/03/27 10:10:40;;;;;;;1.90;0.97;;;16.20;61.10;;;;;;5009824;28;20453;-77
2021/03/27 10:13:18;;;;;;;1.40;1.00;;;15.30;64.00;;;;;;5008728;28;20492;-78
2021/03/27 10:15:49;;;;;;;0.90;0.80;;;16.30;60.30;;;;;;5009736;28;20479;-76
2021/03/27 10:18:34;;;;;;;2.13;1.20;;;16.40;60.80;;;;;;5007318;28;20492;-76
2021/03/27 10:21:21;;;;;;;1.50;1.00;;;15.60;62.40;;;;;;5007497;28;20497;-73
2021/03/27 10:23:54;;;;;;;1.97;1.30;;;15.60;61.60;;;;;;5009408;28;20465;-77
2021/03/27 10:26:27;;;;;;;1.03;0.80;;;13.70;64.60;;;;;;5007843;28;20468;-76
2021/03/27 10:28:57;;;;;;;1.30;1.08;;;12.80;65.20;;;;;;5006800;28;20543;-75
2021/03/27 10:31:29;;;;;;;1.60;1.10;;;12.20;66.00;;;;;;5006976;28;20667;-75
2021/03/27 10:34:10;;;;;;;2.40;1.40;;;11.90;67.80;;;;;;5007297;28;20469;-77
2021/03/27 10:36:46;;;;;;;1.20;0.90;;;12.50;67.40;;;;;;5008346;28;20465;-75
2021/03/27 10:39:37;;;;;;;2.60;1.00;;;12.70;64.60;;;;;;4990401;28;20195;-76
2021/03/27 10:42:23;;;;;;;2.25;1.13;;;12.10;64.90;;;;;;4990809;28;20520;-76
2021/03/27 10:45:04;;;;;;;1.60;0.90;;;12.00;66.50;;;;;;4993198;28;20234;-75
2021/03/27 10:47:36;;;;;;;1.40;1.05;;;12.20;64.50;;;;;;5003257;28;20286;-77
2021/03/27 10:50:09;;;;;;;2.10;1.17;;;12.00;66.10;;;;;;4996860;28;20263;-76
2021/03/27 10:52:52;;;;;;;1.50;1.00;;;11.80;66.70;;;;;;5011907;28;20214;-75
2021/03/27 10:55:39;;;;;;;2.58;1.20;;;12.10;66.50;;;;;;5010003;28;20230;-75
2021/03/27 10:58:44;;;;;;;1.52;1.20;;;12.10;66.30;;;;;;5002922;28;20226;-78
2021/03/27 11:01:48;;;;;;;1.58;0.85;;;11.90;65.60;;;;;;4985284;28;20233;-75
2021/03/27 11:04:42;;;;;;;1.63;1.00;;;11.50;67.80;;;;;;5004278;28;20202;-77
2021/03/27 11:07:43;;;;;;;1.25;0.80;;;11.30;67.60;;;;;;4992707;28;20879;-77
2021/03/27 11:10:54;;;;;;;2.10;1.35;;;12.70;65.90;;;;;;4995716;28;20222;-77
2021/03/27 11:13:53;;;;;;;1.30;1.15;;;13.10;65.40;;;;;;4998316;28;20841;-77
2021/03/27 11:16:55;;;;;;;1.35;0.98;;;12.30;64.50;;;;;;5000631;28;20257;-76
2021/03/27 11:19:49;;;;;;;1.90;1.20;;;11.50;66.70;;;;;;5008638;28;20213;-75
2021/03/27 11:22:32;;;;;;;2.60;1.15;;;12.40;67.20;;;;;;5009175;28;20226;-77
2021/03/27 11:25:35;;;;;;;2.75;1.25;;;13.20;64.30;;;;;;5008607;28;20199;-77
2021/03/27 11:28:15;;;;;;;1.97;1.07;;;13.20;66.90;;;;;;5009107;28;20225;-77
2021/03/27 11:30:51;;;;;;;2.27;1.20;;;14.20;64.50;;;;;;5009218;28;20461;-77
2021/03/27 11:33:29;;;;;;;3.20;1.10;;;15.50;62.20;;;;;;5010148;28;20463;-76
2021/03/27 11:36:05;;;;;;;1.20;1.00;;;14.90;63.20;;;;;;5009996;28;20460;-77
2021/03/27 11:38:38;;;;;;;2.03;1.13;;;14.30;63.60;;;;;;4997565;28;20442;-75
2021/03/27 11:41:13;;;;;;;2.37;1.20;;;15.40;61.70;;;;;;4990783;28;20490;-77
2021/03/27 11:44:07;;;;;;;1.63;1.10;;;16.80;59.90;;;;;;4991078;28;20842;-77
2021/03/27 11:46:38;;;;;;;2.80;1.43;;;16.90;57.50;;;;;;4991007;28;20868;-77
2021/03/27 11:49:10;;;;;;;1.97;1.00;;;17.00;57.20;;;;;;5008801;28;20807;-76
2021/03/27 11:51:41;;;;;;;3.70;1.53;;;16.30;59.10;;;;;;5001380;28;20478;-75
2021/03/27 11:54:13;;;;;;;1.53;1.00;;;15.60;59.70;;;;;;4992651;28;20486;-77
2021/03/27 11:56:47;;;;;;;3.80;1.60;;;14.60;60.60;;;;;;4992683;28;20864;-76
2021/03/27 11:59:42;;;;;;;3.37;1.10;;;13.90;62.80;;;;;;4988858;28;20461;-75
2021/03/27 12:02:22;;;;;;;3.00;1.40;;;13.20;64.70;;;;;;5008778;28;20473;-74
2021/03/27 12:04:58;;;;;;;2.70;1.50;;;12.70;65.10;;;;;;5008430;28;20468;-77
2021/03/27 12:07:33;;;;;;;4.10;1.25;;;12.30;66.40;;;;;;5009463;28;20460;-76
2021/03/27 12:10:04;;;;;;;2.28;1.10;;;12.00;68.30;;;;;;5008880;28;20197;-76
2021/03/27 12:12:42;;;;;;;2.15;1.23;;;11.70;68.20;;;;;;5008850;28;20309;-75
2021/03/27 12:15:29;;;;;;;1.38;1.00;;;11.40;68.40;;;;;;5008627;28;20209;-75
2021/03/27 12:18:10;;;;;;;1.65;1.38;;;11.40;67.70;;;;;;5008367;28;20197;-76
2021/03/27 12:20:41;;;;;;;1.45;1.30;;;11.40;67.50;;;;;;5008139;28;20218;-75
2021/03/27 12:23:27;;;;;;;1.50;1.13;;;11.50;68.90;;;;;;5008104;28;20245;-76
2021/03/27 12:26:03;;;;;;;1.90;1.30;;;11.60;68.50;;;;;;4988907;28;20269;-77
2021/03/27 12:28:40;;;;;;;3.42;1.25;;;11.60;68.00;;;;;;5005877;28;20605;-76
2021/03/27 12:31:15;;;;;;;3.03;1.30;;;11.50;68.40;;;;;;5008242;28;20214;-77
2021/03/27 12:33:52;;;;;;;3.75;1.40;;;11.40;67.60;;;;;;5009563;28;20205;-77
2021/03/27 12:36:21;;;;;;;2.30;1.42;;;11.10;69.10;;;;;;5009562;28;20255;-75
2021/03/27 12:39:13;;;;;;;2.85;1.30;;;11.00;69.30;;;;;;4994357;28;20203;-76
2021/03/27 12:41:45;;;;;;;1.90;1.35;;;10.90;69.10;;;;;;4988985;28;20223;-77
2021/03/27 12:44:22;;;;;;;1.67;1.42;;;10.80;69.90;;;;;;4989094;28;20218;-78
2021/03/27 12:46:57;;;;;;;2.38;1.55;;;10.80;70.60;;;;;;4993378;28;20202;-78
2021/03/27 12:50:02;;;;;;;3.35;1.45;;;10.80;71.80;;;;;;4989292;28;20194;-78
2021/03/27 12:52:48;;;;;;;1.60;1.40;;;11.00;70.60;;;;;;4988910;28;20215;-78
2021/03/27 12:55:35;;;;;;;2.45;1.52;;;11.00;70.10;;;;;;5009824;28;20736;-75
2021/03/27 12:58:14;;;;;;;2.78;1.20;;;11.00;70.10;;;;;;5014732;28;20277;-76
2021/03/27 13:00:55;;;;;;;2.95;1.30;;;10.90;68.40;;;;;;5018623;28;20317;-77
2021/03/27 13:03:57;;;;;;;2.78;1.20;;;10.80;68.90;;;;;;5018651;28;20262;-76
2021/03/27 13:06:36;;;;;;;1.50;1.20;;;11.00;69.40;;;;;;5011197;28;20198;-76
2021/03/27 13:09:25;;;;;;;1.52;1.20;;;12.00;67.00;;;;;;5010429;28;20198;-79
2021/03/27 13:11:57;;;;;;;1.65;1.40;;;12.50;65.10;;;;;;5010294;28;20219;-76
2021/03/27 13:15:05;;;;;;;2.90;1.40;;;12.90;65.30;;;;;;5010329;28;20209;-76
2021/03/27 13:23:59;;;;;;;1.90;1.30;;;12.10;66.80;;;;;;5059948;28;20575;-92
2021/03/27 13:26:47;;;;;;;2.20;1.20;;;11.70;66.80;;;;;;5068598;28;20193;-91
2021/03/27 13:29:32;;;;;;;1.95;0.90;;;11.40;67.40;;;;;;5076327;22;20232;-76
2021/03/27 13:32:01;;;;;;;2.30;1.40;;;11.40;68.30;;;;;;5085723;28;20396;-76
2021/03/27 13:34:32;;;;;;;3.33;1.23;;;11.40;69.10;;;;;;5090771;28;20219;-77
2021/03/27 13:37:09;;;;;;;1.90;1.30;;;11.50;68.80;;;;;;5094007;28;20612;-74
2021/03/27 13:39:39;;;;;;;2.70;1.57;;;11.80;68.60;;;;;;5101211;28;20187;-76
2021/03/27 13:42:58;;;;;;;3.67;1.42;;;12.60;66.80;;;;;;5099645;28;20449;-76
2021/03/27 13:45:41;;;;;;;1.30;1.10;;;13.20;64.60;;;;;;5093609;28;20221;-73
2021/03/27 13:48:38;;;;;;;3.83;1.33;;;13.10;64.70;;;;;;5091524;28;20192;-75
2021/03/27 13:51:17;;;;;;;1.50;1.40;;;13.60;66.40;;;;;;5082372;28;20478;-76
2021/03/27 13:54:07;;;;;;;2.13;1.60;;;14.10;65.10;;;;;;5105556;28;20471;-76
2021/03/27 13:56:43;;;;;;;1.87;1.20;;;14.00;64.20;;;;;;5101833;28;20468;-75
2021/03/27 13:59:47;;;;;;;2.63;1.23;;;13.50;64.80;;;;;;5100834;28;20464;-76
2021/03/27 14:02:37;;;;;;;4.13;1.50;;;13.10;64.70;;;;;;5087078;28;20543;-76
2021/03/27 14:05:14;;;;;;;2.25;1.30;;;12.50;65.40;;;;;;5024129;28;20939;-79
2021/03/27 14:07:44;;;;;;;1.73;1.23;;;12.10;66.80;;;;;;5100797;28;20207;-77
2021/03/27 14:10:21;;;;;;;2.03;1.00;;;11.90;67.30;;;;;;5092697;28;20450;-77
2021/03/27 14:12:58;;;;;;;4.37;1.43;;;11.90;69.40;;;;;;5092999;28;20513;-77
2021/03/27 14:15:36;;;;;;;2.80;1.10;;;12.20;68.00;;;;;;5108460;28;20460;-77
2021/03/27 14:18:18;;;;;;;2.63;1.25;;;12.30;67.80;;;;;;5107223;28;20462;-77
2021/03/27 14:20:50;;;;;;;2.55;1.50;;;12.20;68.80;;;;;;5103981;28;20215;-76